createdAt,value
2023-01-11T00:00:28.186Z,100689.03
2023-01-11T00:02:56.948Z,100683.22
2023-01-11T00:05:24.045Z,100691.41
2023-01-11T00:07:50.838Z,100664.69
2023-01-11T00:10:19.039Z,100681.78
2023-01-11T00:12:46.755Z,100675.25
2023-01-11T00:15:14.194Z,100683.00
2023-01-11T00:17:41.548Z,100669.06
2023-01-11T00:20:10.206Z,100664.41
2023-01-11T00:22:37.021Z,100672.94
2023-01-11T00:25:04.256Z,100663.69
2023-01-11T00:27:31.040Z,100673.41
2023-01-11T00:29:57.577Z,100667.97
2023-01-11T00:32:24.237Z,100668.38
2023-01-11T00:34:50.760Z,100670.69
2023-01-11T00:37:17.261Z,100660.63
2023-01-11T00:39:43.760Z,100664.16
2023-01-11T00:42:30.342Z,100664.16
2023-01-11T00:45:15.143Z,100663.00
2023-01-11T00:47:57.911Z,100663.41
2023-01-11T00:50:25.634Z,100654.50
2023-01-11T00:52:52.207Z,100651.38
2023-01-11T00:55:19.167Z,100644.44
2023-01-11T00:57:45.810Z,100645.22
2023-01-11T01:00:13.001Z,100645.59
2023-01-11T01:02:39.930Z,100647.59
2023-01-11T01:05:06.857Z,100645.66
2023-01-11T01:07:33.341Z,100649.94
2023-01-11T01:09:59.840Z,100644.88
2023-01-11T01:12:45.015Z,100644.50
2023-01-11T01:15:11.650Z,100648.00
2023-01-11T01:17:38.564Z,100645.69
2023-01-11T01:20:05.721Z,100647.66
2023-01-11T01:22:32.259Z,100648.44
2023-01-11T01:24:58.744Z,100652.69
2023-01-11T01:27:25.783Z,100650.78
2023-01-11T01:29:52.330Z,100658.94
2023-01-11T01:32:18.840Z,100664.00
2023-01-11T01:34:45.449Z,100657.41
2023-01-11T01:37:12.005Z,100669.44
2023-01-11T01:39:38.744Z,100655.84
2023-01-11T01:42:06.228Z,100652.38
2023-01-11T01:44:55.399Z,100646.94
2023-01-11T01:47:27.926Z,100655.50
2023-01-11T01:49:54.911Z,100657.06
2023-01-11T01:52:28.894Z,100657.47
2023-01-11T01:54:59.735Z,100660.97
2023-01-11T01:57:30.942Z,100656.31
2023-01-11T02:00:00.814Z,100658.66
2023-01-11T02:02:27.501Z,100662.16
2023-01-11T02:04:56.384Z,100662.53
2023-01-11T02:07:30.014Z,100669.91
2023-01-11T02:10:11.700Z,100655.97
2023-01-11T02:12:46.789Z,100662.16
2023-01-11T02:15:15.031Z,100666.81
2023-01-11T02:17:41.876Z,100659.09
2023-01-11T02:20:08.455Z,100654.06
2023-01-11T02:22:49.164Z,100675.00
2023-01-11T02:25:34.015Z,100672.31
2023-01-11T02:28:05.711Z,100664.19
2023-01-11T02:30:53.055Z,100676.59
2023-01-11T02:33:32.358Z,100671.56
2023-01-11T02:36:17.686Z,100658.75
2023-01-11T02:38:57.067Z,100655.66
2023-01-11T02:41:56.326Z,100666.53
2023-01-11T02:44:51.680Z,100661.88
2023-01-11T02:47:30.479Z,100658.41
2023-01-11T02:50:07.801Z,100666.56
2023-01-11T02:52:52.390Z,100659.94
2023-01-11T02:55:24.749Z,100665.38
2023-01-11T02:57:54.795Z,100670.03
2023-01-11T03:00:23.240Z,100681.31
2023-01-11T03:03:21.894Z,100675.91
2023-01-11T03:05:55.152Z,100691.84
2023-01-11T03:08:51.900Z,100685.25
2023-01-11T03:11:47.499Z,100687.97
2023-01-11T03:14:45.430Z,100690.72
2023-01-11T03:17:35.085Z,100694.59
2023-01-11T03:20:09.661Z,100708.59
2023-01-11T03:22:58.337Z,100701.63
2023-01-11T03:25:45.651Z,100710.19
2023-01-11T03:28:13.168Z,100706.28
2023-01-11T03:30:47.071Z,100703.56
2023-01-11T03:33:30.959Z,100695.41
2023-01-11T03:36:07.791Z,100697.38
2023-01-11T03:38:46.834Z,100706.28
2023-01-11T03:41:18.938Z,100700.84
2023-01-11T03:43:48.335Z,100698.13
2023-01-11T03:46:21.158Z,100698.53
2023-01-11T03:49:04.529Z,100700.50
2023-01-11T03:51:41.636Z,100692.34
2023-01-11T03:54:11.993Z,100705.16
2023-01-11T03:56:44.902Z,100704.38
2023-01-11T03:59:12.133Z,100706.34
2023-01-11T04:01:39.385Z,100707.88
2023-01-11T04:04:06.124Z,100721.47
2023-01-11T04:06:36.052Z,100722.25
2023-01-11T04:09:02.932Z,100710.22
2023-01-11T04:11:29.419Z,100714.09
2023-01-11T04:13:55.921Z,100713.69
2023-01-11T04:16:22.440Z,100724.56
2023-01-11T04:18:48.964Z,100738.97
2023-01-11T04:21:15.495Z,100731.94
2023-01-11T04:23:42.062Z,100733.91
2023-01-11T04:26:08.591Z,100743.22
2023-01-11T04:28:35.257Z,100749.44
2023-01-11T04:31:01.796Z,100752.56
2023-01-11T04:33:28.325Z,100758.00
2023-01-11T04:35:54.917Z,100746.72
2023-01-11T04:38:24.969Z,100753.72
2023-01-11T04:41:11.522Z,100747.13
2023-01-11T04:43:38.890Z,100761.13
2023-01-11T04:46:05.508Z,100755.31
2023-01-11T04:48:33.407Z,100759.19
2023-01-11T04:50:59.924Z,100751.81
2023-01-11T04:53:26.455Z,100757.25
2023-01-11T04:55:53.617Z,100753.75
2023-01-11T04:58:20.141Z,100772.03
2023-01-11T05:00:47.190Z,100768.50
2023-01-11T05:03:14.065Z,100775.88
2023-01-11T05:05:40.608Z,100773.16
2023-01-11T05:08:07.174Z,100767.72
2023-01-11T05:10:33.686Z,100773.16
2023-01-11T05:13:00.194Z,100769.66
2023-01-11T05:15:26.676Z,100775.47
2023-01-11T05:17:53.220Z,100781.31
2023-01-11T05:20:19.774Z,100781.31
2023-01-11T05:22:46.541Z,100787.16
2023-01-11T05:25:13.154Z,100785.94
2023-01-11T05:27:39.680Z,100785.19
2023-01-11T05:30:06.921Z,100790.63
2023-01-11T05:32:33.436Z,100800.31
2023-01-11T05:42:40.822Z,100806.91
2023-01-11T05:45:26.332Z,100810.78
2023-01-11T05:47:53.955Z,100814.25
2023-01-11T05:50:20.707Z,100808.44
2023-01-11T05:52:47.250Z,100818.53
2023-01-11T05:55:14.053Z,100814.59
2023-01-11T05:57:44.723Z,100813.81
2023-01-11T06:00:12.655Z,100821.19
2023-01-11T06:02:39.516Z,100825.88
2023-01-11T06:05:06.841Z,100819.63
2023-01-11T06:07:34.975Z,100826.22
2023-01-11T06:10:04.805Z,100816.09
2023-01-11T06:12:31.747Z,100827.34
2023-01-11T06:14:58.719Z,100833.13
2023-01-11T06:17:28.019Z,100837.03
2023-01-11T06:19:54.653Z,100853.34
2023-01-11T06:22:21.242Z,100855.66
2023-01-11T06:24:48.047Z,100844.38
2023-01-11T06:27:17.332Z,100855.59
2023-01-11T06:29:43.945Z,100853.66
2023-01-11T06:32:10.827Z,100857.50
2023-01-11T06:34:37.653Z,100866.41
2023-01-11T06:37:32.819Z,100862.16
2023-01-11T06:39:59.534Z,100866.38
2023-01-11T06:42:53.859Z,100867.91
2023-01-11T06:45:25.636Z,100878.75
2023-01-11T06:47:52.330Z,100882.25
2023-01-11T06:50:19.106Z,100879.91
2023-01-11T06:52:59.981Z,100883.00
2023-01-11T06:55:46.177Z,100896.97
2023-01-11T06:58:15.484Z,100903.91
2023-01-11T07:00:42.311Z,100901.56
2023-01-11T07:04:07.384Z,100901.16
2023-01-11T07:06:35.942Z,100909.31
2023-01-11T07:09:02.883Z,100903.09
2023-01-11T07:11:31.671Z,100907.34
2023-01-11T07:13:58.301Z,100909.66
2023-01-11T07:16:31.966Z,100911.97
2023-01-11T07:18:58.504Z,100924.34
2023-01-11T07:21:25.026Z,100935.16
2023-01-11T07:24:05.103Z,100939.81
2023-01-11T07:26:33.083Z,100940.16
2023-01-11T07:28:59.614Z,100955.63
2023-01-11T07:34:41.502Z,100962.88
2023-01-11T07:38:22.991Z,100971.78
2023-01-11T07:40:50.667Z,100972.53
2023-01-11T07:43:25.318Z,100977.16
2023-01-11T07:45:55.800Z,100974.41
2023-01-11T07:48:26.399Z,100974.41
2023-01-11T07:50:54.107Z,100983.25
2023-01-11T07:53:21.919Z,100985.56
2023-01-11T07:55:48.525Z,100975.09
2023-01-11T07:58:15.913Z,100991.72
2023-01-11T08:00:47.370Z,100995.59
2023-01-11T08:03:14.181Z,101002.16
2023-01-11T08:05:40.884Z,101008.75
2023-01-11T08:08:08.102Z,101016.91
2023-01-11T08:10:34.914Z,101013.00
2023-01-11T08:13:20.643Z,101029.63
2023-01-11T08:15:47.247Z,101031.16
2023-01-11T08:18:14.180Z,101029.53
2023-01-11T08:20:41.082Z,101030.66
2023-01-11T08:23:09.594Z,101028.34
2023-01-11T08:25:36.830Z,101033.75
2023-01-11T08:28:06.553Z,101039.13
2023-01-11T08:30:33.397Z,101037.94
2023-01-11T08:33:02.362Z,101054.56
2023-01-11T08:35:30.085Z,101060.00
2023-01-11T08:37:56.609Z,101069.63
2023-01-11T08:40:26.578Z,101072.28
2023-01-11T08:42:56.941Z,101077.28
2023-01-11T08:45:25.037Z,101082.34
2023-01-11T08:47:52.284Z,101089.72
2023-01-11T08:50:19.699Z,101087.34
2023-01-11T08:52:49.670Z,101087.31
2023-01-11T08:55:16.387Z,101090.69
2023-01-11T08:57:42.976Z,101101.16
2023-01-11T09:00:10.223Z,101107.31
2023-01-11T09:02:36.848Z,101103.03
2023-01-11T09:05:03.557Z,101103.03
2023-01-11T09:07:30.091Z,101111.16
2023-01-11T09:09:56.567Z,101098.75
2023-01-11T09:12:23.017Z,101106.47
2023-01-11T09:14:49.516Z,101111.47
2023-01-11T09:17:16.082Z,101109.09
2023-01-11T09:19:42.561Z,101109.50
2023-01-11T09:22:09.129Z,101111.00
2023-01-11T09:24:35.685Z,101110.19
2023-01-11T09:27:02.272Z,101118.06
2023-01-11T09:29:29.415Z,101111.91
2023-01-11T09:32:21.069Z,101116.19
2023-01-11T09:34:49.741Z,101120.47
2023-01-11T09:37:16.926Z,101120.88
2023-01-11T09:39:46.904Z,101120.91
2023-01-11T09:42:36.761Z,101121.78
2023-01-11T09:45:05.410Z,101129.91
2023-01-11T09:47:36.877Z,101133.44
2023-01-11T09:50:10.450Z,101132.28
2023-01-11T09:52:42.933Z,101127.28
2023-01-11T09:55:15.322Z,101129.63
2023-01-11T09:57:50.300Z,101130.06
2023-01-11T10:00:27.860Z,101131.25
2023-01-11T10:02:59.142Z,101127.38
2023-01-11T10:05:35.725Z,101130.88
2023-01-11T10:18:31.015Z,101154.19
2023-01-11T10:18:39.625Z,101146.06
2023-01-11T10:20:19.798Z,101146.88
2023-01-11T10:22:48.451Z,101149.19
2023-01-11T10:25:24.800Z,101143.00
2023-01-11T10:27:59.012Z,101145.41
2023-01-11T10:30:48.026Z,101142.00
2023-01-11T10:33:37.636Z,101146.06
2023-01-11T10:36:27.571Z,101157.81
2023-01-11T10:39:32.287Z,101158.59
2023-01-11T10:42:10.324Z,101173.81
2023-01-11T10:44:42.297Z,101158.34
2023-01-11T10:47:16.411Z,101164.97
2023-01-11T10:50:08.583Z,101168.53
2023-01-11T10:52:42.619Z,101163.50
2023-01-11T10:55:14.419Z,101163.50
2023-01-11T10:57:59.284Z,101174.75
2023-01-11T11:00:40.028Z,101178.19
2023-01-11T11:03:32.716Z,101167.31
2023-01-11T11:06:13.698Z,101173.94
2023-01-11T11:08:59.676Z,101179.81
2023-01-11T11:11:35.389Z,101163.16
2023-01-11T11:14:10.363Z,101175.22
2023-01-11T11:16:46.919Z,101174.09
2023-01-11T11:19:19.911Z,101165.94
2023-01-11T11:21:47.581Z,101161.28
2023-01-11T11:24:19.671Z,101166.75
2023-01-11T11:26:49.524Z,101164.09
2023-01-11T11:29:23.916Z,101163.31
2023-01-11T11:31:51.222Z,101148.91
2023-01-11T11:34:21.452Z,101164.78
2023-01-11T11:37:06.543Z,101164.78
2023-01-11T11:39:33.186Z,101166.38
2023-01-11T11:42:15.087Z,101157.16
2023-01-11T11:44:41.584Z,101157.22
2023-01-11T11:47:15.818Z,101163.00
2023-01-11T11:49:42.788Z,101166.13
2023-01-11T11:52:17.796Z,101164.19
2023-01-11T11:54:53.327Z,101170.00
2023-01-11T11:57:28.040Z,101174.22
2023-01-11T12:00:07.797Z,101186.25
2023-01-11T12:02:36.759Z,101190.09
2023-01-11T12:05:09.293Z,101178.84
2023-01-11T12:07:53.626Z,101184.63
2023-01-11T12:10:25.375Z,101191.19
2023-01-11T12:12:56.024Z,101179.97
2023-01-11T12:15:27.127Z,101190.47
2023-01-11T12:17:55.052Z,101192.78
2023-01-11T12:20:22.519Z,101188.88
2023-01-11T12:22:51.168Z,101196.31
2023-01-11T12:25:17.634Z,101199.50
2023-01-11T12:27:45.221Z,101194.16
2023-01-11T12:30:21.621Z,101189.97
2023-01-11T12:33:07.706Z,101186.50
2023-01-11T12:35:52.452Z,101186.50
2023-01-11T12:38:34.009Z,101175.31
2023-01-11T12:41:50.057Z,101177.31
2023-01-11T12:44:38.835Z,101168.34
2023-01-11T12:47:25.303Z,101189.22
2023-01-11T12:50:03.852Z,101196.94
2023-01-11T12:53:02.201Z,101183.72
2023-01-11T12:55:44.928Z,101200.81
2023-01-11T12:58:25.703Z,101198.50
2023-01-11T13:01:19.038Z,101202.31
2023-01-11T13:04:23.449Z,101214.28
2023-01-11T13:07:03.724Z,101201.09
2023-01-11T13:09:41.426Z,101206.94
2023-01-11T13:12:28.978Z,101209.66
2023-01-11T13:15:11.571Z,101198.03
2023-01-11T13:18:05.024Z,101201.53
2023-01-11T13:20:58.720Z,101197.97
2023-01-11T13:23:42.690Z,101191.75
2023-01-11T13:26:25.042Z,101207.63
2023-01-11T13:28:57.834Z,101184.25
2023-01-11T13:31:26.009Z,101191.25
2023-01-11T13:34:00.651Z,101187.00
2023-01-11T13:36:38.166Z,101189.78
2023-01-11T13:39:08.694Z,101181.69
2023-01-11T13:41:43.233Z,101176.66
2023-01-11T13:44:16.280Z,101178.25
2023-01-11T13:47:00.022Z,101168.91
2023-01-11T13:49:44.025Z,101164.25
2023-01-11T13:53:04.132Z,101159.59
2023-01-11T13:55:50.758Z,101154.59
2023-01-11T13:58:28.886Z,101159.25
2023-01-11T14:01:02.462Z,101163.09
2023-01-11T14:03:34.388Z,101159.19
2023-01-11T14:06:13.769Z,101159.94
2023-01-11T14:08:53.330Z,101160.75
2023-01-11T14:11:35.501Z,101163.09
2023-01-11T14:14:18.215Z,101173.59
2023-01-11T14:17:14.603Z,101179.03
2023-01-11T14:19:53.574Z,101180.59
2023-01-11T14:22:44.899Z,101185.25
2023-01-11T14:25:25.452Z,101192.13
2023-01-11T14:27:52.939Z,101186.66
2023-01-11T14:30:32.578Z,101183.84
2023-01-11T14:33:12.321Z,101187.28
2023-01-11T14:35:57.087Z,101172.84
2023-01-11T14:38:27.661Z,101178.59
2023-01-11T14:41:09.040Z,101176.25
2023-01-11T14:44:11.553Z,101176.97
2023-01-11T14:46:48.222Z,101169.56
2023-01-11T14:49:21.696Z,101166.78
2023-01-11T14:51:56.596Z,101166.38
2023-01-11T14:54:26.896Z,101163.63
2023-01-11T14:56:58.945Z,101163.63
2023-01-11T14:59:34.312Z,101174.75
2023-01-11T15:02:04.062Z,101177.06
2023-01-11T15:04:37.896Z,101169.66
2023-01-11T15:07:23.759Z,101177.00
2023-01-11T15:09:53.817Z,101166.44
2023-01-11T15:12:23.728Z,101177.59
2023-01-11T15:14:56.057Z,101174.47
2023-01-11T15:17:45.026Z,101171.75
2023-01-11T15:20:16.687Z,101165.63
2023-01-11T15:22:44.422Z,101172.94
2023-01-11T15:25:31.264Z,101181.81
2023-01-11T15:28:01.036Z,101179.88
2023-01-11T15:30:30.544Z,101184.97
2023-01-11T15:33:16.871Z,101175.63
2023-01-11T15:35:55.736Z,101187.25
2023-01-11T15:38:33.188Z,101178.34
2023-01-11T15:41:20.252Z,101176.75
2023-01-11T15:43:55.157Z,101183.34
2023-01-11T15:46:57.040Z,101184.44
2023-01-11T15:49:44.231Z,101180.84
2023-01-11T15:52:50.835Z,101192.13
2023-01-11T15:56:05.070Z,101197.50
2023-01-11T15:58:53.748Z,101201.28
2023-01-11T16:01:24.241Z,101200.84
2023-01-11T16:04:01.328Z,101211.34
2023-01-11T16:07:23.188Z,101209.84
2023-01-11T16:09:53.643Z,101210.28
2023-01-11T16:12:30.200Z,101200.63
2023-01-11T16:15:17.217Z,101208.00
2023-01-11T16:17:47.168Z,101204.53
2023-01-11T16:20:26.115Z,101198.69
2023-01-11T16:22:57.257Z,101180.44
2023-01-11T16:25:29.987Z,101197.06
2023-01-11T16:27:58.776Z,101193.16
2023-01-11T16:30:26.892Z,101190.00
2023-01-11T16:33:12.728Z,101198.09
2023-01-11T16:35:39.687Z,101193.38
2023-01-11T16:38:12.271Z,101189.88
2023-01-11T16:40:42.696Z,101201.47
2023-01-11T16:43:33.213Z,101201.09
2023-01-11T16:46:00.877Z,101181.75
2023-01-11T16:48:30.407Z,101182.47
2023-01-11T16:51:07.142Z,101194.44
2023-01-11T16:53:36.257Z,101187.47
2023-01-11T16:56:07.999Z,101195.97
2023-01-11T16:58:37.923Z,101189.81
2023-01-11T17:01:08.980Z,101201.38
2023-01-11T17:03:38.656Z,101198.59
2023-01-11T17:06:08.205Z,101193.25
2023-01-11T17:08:38.943Z,101189.41
2023-01-11T17:11:25.184Z,101181.28
2023-01-11T17:14:23.077Z,101183.97
2023-01-11T17:16:59.686Z,101195.97
2023-01-11T17:19:31.351Z,101184.75
2023-01-11T17:22:18.856Z,101184.69
2023-01-11T17:24:52.737Z,101185.03
2023-01-11T17:27:33.215Z,101190.47
2023-01-11T17:30:02.002Z,101181.63
2023-01-11T17:32:39.074Z,101178.19
2023-01-11T17:35:15.014Z,101173.53
2023-01-11T17:37:44.109Z,101169.69
2023-01-11T17:40:22.888Z,101173.63
2023-01-11T17:43:09.127Z,101166.25
2023-01-11T17:45:36.574Z,101163.53
2023-01-11T17:48:12.985Z,101173.97
2023-01-11T17:50:47.439Z,101173.19
2023-01-11T17:53:17.477Z,101158.50
2023-01-11T17:55:56.087Z,101153.84
2023-01-11T17:58:34.871Z,101152.25
2023-01-11T18:01:16.520Z,101144.50
2023-01-11T18:03:47.692Z,101143.69
2023-01-11T18:06:19.782Z,101145.28
2023-01-11T18:08:48.983Z,101131.38
2023-01-11T18:11:27.125Z,101139.91
2023-01-11T18:13:57.361Z,101126.34
2023-01-11T18:16:24.355Z,101136.06
2023-01-11T18:18:52.430Z,101144.22
2023-01-11T18:21:25.096Z,101136.50
2023-01-11T18:24:09.073Z,101140.41
2023-01-11T18:26:37.474Z,101127.63
2023-01-11T18:29:04.901Z,101124.13
2023-01-11T18:31:32.474Z,101127.56
2023-01-11T18:33:59.588Z,101126.00
2023-01-11T18:36:28.407Z,101114.72
2023-01-11T18:38:54.998Z,101120.16
2023-01-11T18:41:41.072Z,101113.16
2023-01-11T18:44:11.982Z,101115.50
2023-01-11T18:46:38.649Z,101119.38
2023-01-11T18:49:05.232Z,101102.63
2023-01-11T18:51:35.315Z,101112.63
2023-01-11T18:54:02.441Z,101102.47
2023-01-11T18:56:29.049Z,101109.41
2023-01-11T18:58:55.959Z,101090.44
2023-01-11T19:01:22.724Z,101092.03
2023-01-11T19:03:49.623Z,101089.31
2023-01-11T19:06:19.425Z,101089.66
2023-01-11T19:08:46.134Z,101084.25
2023-01-11T19:11:14.975Z,101102.06
2023-01-11T19:13:41.651Z,101084.53
2023-01-11T19:16:09.177Z,101098.88
2023-01-11T19:18:36.215Z,101073.69
2023-01-11T19:21:06.614Z,101060.16
2023-01-11T19:23:34.276Z,101052.00
2023-01-11T19:26:02.214Z,101046.16
2023-01-11T19:28:29.378Z,101047.59
2023-01-11T19:30:56.079Z,101034.81
2023-01-11T19:33:22.797Z,101034.13
2023-01-11T19:35:49.702Z,101024.06
2023-01-11T19:38:18.482Z,101019.41
2023-01-11T19:40:48.965Z,101027.88
2023-01-11T19:43:16.980Z,101028.69
2023-01-11T19:45:43.583Z,101020.16
2023-01-11T19:48:10.942Z,101027.84
2023-01-11T19:50:37.526Z,101019.28
2023-01-11T19:53:04.155Z,101021.94
2023-01-11T19:55:30.811Z,101020.31
2023-01-11T19:57:57.398Z,101014.03
2023-01-11T20:00:24.097Z,101038.38
2023-01-11T20:02:51.073Z,101028.19
2023-01-11T20:05:17.849Z,101023.13
2023-01-11T20:07:44.460Z,101031.59
2023-01-11T20:10:11.797Z,101013.34
2023-01-11T20:12:38.489Z,101011.75
2023-01-11T20:15:05.545Z,101014.47
2023-01-11T20:17:33.403Z,101017.91
2023-01-11T20:19:59.914Z,101008.22
2023-01-11T20:22:26.610Z,101012.16
2023-01-11T20:24:53.323Z,100993.22
2023-01-11T20:27:19.985Z,101008.38
2023-01-11T20:29:47.811Z,101002.97
2023-01-11T20:32:39.018Z,101005.31
2023-01-11T20:35:00.922Z,101019.66
2023-01-11T20:37:28.518Z,101025.84
2023-01-11T20:39:55.177Z,101025.41
2023-01-11T20:42:22.963Z,101022.25
2023-01-11T20:44:49.586Z,101023.75
2023-01-11T20:47:16.261Z,101025.69
2023-01-11T20:49:42.798Z,101022.25
2023-01-11T20:52:09.543Z,101018.75
2023-01-11T20:54:37.505Z,101016.06
2023-01-11T20:57:08.168Z,101007.16
2023-01-11T20:59:34.921Z,101009.47
2023-01-11T21:02:01.559Z,101003.38
2023-01-11T21:04:28.166Z,101017.38
2023-01-11T21:06:54.836Z,101015.44
2023-01-11T21:09:21.416Z,101016.97
2023-01-11T21:11:53.198Z,101028.25
2023-01-11T21:14:21.266Z,101026.69
2023-01-11T21:16:48.314Z,101023.97
2023-01-11T21:19:15.889Z,101035.94
2023-01-11T21:21:43.441Z,101026.25
2023-01-11T21:24:13.369Z,101027.81
2023-01-11T21:26:42.010Z,101026.34
2023-01-11T21:29:10.487Z,101016.28
2023-01-11T21:31:37.940Z,101026.34
2023-01-11T21:34:05.203Z,101008.16
2023-01-11T21:36:32.519Z,101008.94
2023-01-11T21:39:00.272Z,101000.78
2023-01-11T21:41:47.875Z,101008.94
2023-01-11T21:44:15.531Z,101012.41
2023-01-11T21:46:43.161Z,101010.84
2023-01-11T21:49:10.789Z,101010.09
2023-01-11T21:51:37.689Z,101013.56
2023-01-11T21:54:13.285Z,101006.63
2023-01-11T21:56:41.850Z,101008.19
2023-01-11T21:59:08.806Z,101005.88
2023-01-11T22:01:37.585Z,101000.88
2023-01-11T22:04:06.380Z,100996.66
2023-01-11T22:06:43.639Z,100993.16
2023-01-11T22:09:11.808Z,100981.91
2023-01-11T22:11:39.295Z,100996.22
2023-01-11T22:14:06.688Z,100985.06
2023-01-11T22:16:34.030Z,100992.84
2023-01-11T22:19:01.381Z,100995.22
2023-01-11T22:21:28.417Z,100996.34
2023-01-11T22:23:57.759Z,100997.91
2023-01-11T22:26:25.361Z,101006.06
2023-01-11T22:29:12.672Z,100998.31
2023-01-11T22:31:42.212Z,100994.47
2023-01-11T22:34:09.938Z,100996.84
2023-01-11T22:36:36.598Z,100995.69
2023-01-11T22:39:03.588Z,100986.38
2023-01-11T22:41:30.229Z,100992.97
2023-01-11T22:43:56.784Z,101000.31
2023-01-11T22:46:25.573Z,101008.06
2023-01-11T22:48:53.062Z,101008.06
2023-01-11T22:51:23.153Z,101010.78
2023-01-11T22:53:51.217Z,101008.44
2023-01-11T22:56:19.704Z,101015.00
2023-01-11T22:58:48.419Z,101011.94
2023-01-11T23:01:17.487Z,101011.59
2023-01-11T23:03:45.399Z,101026.66
2023-01-11T23:06:13.302Z,101023.13
2023-01-11T23:08:42.618Z,101016.59
2023-01-11T23:11:14.745Z,101020.84
2023-01-11T23:13:55.239Z,101019.28
2023-01-11T23:16:22.913Z,101016.19
2023-01-11T23:18:49.919Z,101020.50
2023-01-11T23:21:17.236Z,101023.97
2023-01-11T23:23:44.078Z,101028.28
2023-01-11T23:26:12.261Z,101022.47
2023-01-11T23:28:39.417Z,101024.41
2023-01-11T23:31:14.790Z,101017.47
2023-01-11T23:33:41.439Z,101024.47
2023-01-11T23:36:11.319Z,101022.91
2023-01-11T23:38:38.417Z,101018.25
2023-01-11T23:41:27.036Z,101010.13
2023-01-11T23:43:53.681Z,101017.13
2023-01-11T23:46:39.439Z,101011.34
2023-01-11T23:49:08.376Z,101021.03
2023-01-11T23:51:35.294Z,101018.31
2023-01-11T23:54:03.645Z,101014.47
2023-01-11T23:56:31.520Z,101010.59
2023-01-11T23:58:58.479Z,101004.41
